sensor_id;sensor_type;location;lat;lon;timestamp;pressure;altitude;pressure_sealevel;temperature;humidity
46392;BME280;32098;49.448;7.904;2023-05-29T00:02:09;98251.41;;;15.07;49.48
46392;BME280;32098;49.448;7.904;2023-05-29T00:04:35;98251.09;;;14.99;49.41
46392;BME280;32098;49.448;7.904;2023-05-29T00:07:04;98252.66;;;14.94;50.10
46392;BME280;32098;49.448;7.904;2023-05-29T00:09:31;98244.50;;;14.84;50.69
46392;BME280;32098;49.448;7.904;2023-05-29T00:11:57;98245.28;;;14.80;50.90
46392;BME280;32098;49.448;7.904;2023-05-29T00:14:25;98246.81;;;14.71;50.27
46392;BME280;32098;49.448;7.904;2023-05-29T00:16:51;98262.72;;;14.51;50.89
46392;BME280;32098;49.448;7.904;2023-05-29T00:19:18;98254.84;;;14.44;51.52
46392;BME280;32098;49.448;7.904;2023-05-29T00:21:47;98255.22;;;14.31;52.71
46392;BME280;32098;49.448;7.904;2023-05-29T00:24:15;98249.56;;;14.27;52.53
46392;BME280;32098;49.448;7.904;2023-05-29T00:26:42;98259.34;;;14.39;51.35
46392;BME280;32098;49.448;7.904;2023-05-29T00:29:09;98252.47;;;14.48;50.64
46392;BME280;32098;49.448;7.904;2023-05-29T00:31:35;98261.09;;;14.50;50.91
46392;BME280;32098;49.448;7.904;2023-05-29T00:34:04;98255.53;;;14.56;50.96
46392;BME280;32098;49.448;7.904;2023-05-29T00:36:31;98253.56;;;14.52;50.94
46392;BME280;32098;49.448;7.904;2023-05-29T00:38:57;98175.63;;;13.93;51.02
46392;BME280;32098;49.448;7.904;2023-05-29T00:41:24;98255.00;;;14.33;51.42
46392;BME280;32098;49.448;7.904;2023-05-29T00:43:51;98262.88;;;14.17;52.68
46392;BME280;32098;49.448;7.904;2023-05-29T00:46:19;98264.06;;;14.26;52.55
46392;BME280;32098;49.448;7.904;2023-05-29T00:48:47;98249.81;;;14.26;52.70
46392;BME280;32098;49.448;7.904;2023-05-29T00:51:15;98247.94;;;14.26;52.53
46392;BME280;32098;49.448;7.904;2023-05-29T00:53:43;98254.66;;;14.02;54.26
46392;BME280;32098;49.448;7.904;2023-05-29T00:56:10;98251.78;;;13.87;54.37
46392;BME280;32098;49.448;7.904;2023-05-29T00:58:37;98251.47;;;13.45;55.44
46392;BME280;32098;49.448;7.904;2023-05-29T01:01:04;98263.44;;;13.54;54.89
46392;BME280;32098;49.448;7.904;2023-05-29T01:03:31;98259.94;;;13.54;54.87
46392;BME280;32098;49.448;7.904;2023-05-29T01:05:58;98252.94;;;13.36;54.94
46392;BME280;32098;49.448;7.904;2023-05-29T01:08:25;98256.50;;;13.42;54.93
46392;BME280;32098;49.448;7.904;2023-05-29T01:10:56;98256.59;;;13.47;54.09
46392;BME280;32098;49.448;7.904;2023-05-29T01:13:29;98247.28;;;13.33;54.61
46392;BME280;32098;49.448;7.904;2023-05-29T01:16:01;98248.56;;;13.14;55.12
46392;BME280;32098;49.448;7.904;2023-05-29T01:18:53;98167.97;;;12.65;55.15
46392;BME280;32098;49.448;7.904;2023-05-29T01:29:43;98253.69;;;12.98;56.16
46392;BME280;32098;49.448;7.904;2023-05-29T01:32:10;98250.16;;;12.93;56.01
46392;BME280;32098;49.448;7.904;2023-05-29T01:34:37;98249.00;;;13.06;55.51
46392;BME280;32098;49.448;7.904;2023-05-29T01:37:04;98182.69;;;12.34;56.80
46392;BME280;32098;49.448;7.904;2023-05-29T01:39:32;98262.16;;;12.90;56.07
46392;BME280;32098;49.448;7.904;2023-05-29T01:42:00;98252.75;;;12.88;55.87
46392;BME280;32098;49.448;7.904;2023-05-29T01:44:28;98264.84;;;12.90;56.00
46392;BME280;32098;49.448;7.904;2023-05-29T01:46:56;98262.88;;;12.86;56.46
46392;BME280;32098;49.448;7.904;2023-05-29T01:49:26;98247.06;;;12.68;57.35
46392;BME280;32098;49.448;7.904;2023-05-29T01:51:54;98261.50;;;12.67;57.40
46392;BME280;32098;49.448;7.904;2023-05-29T01:54:21;98258.88;;;12.55;57.33
46392;BME280;32098;49.448;7.904;2023-05-29T01:56:47;98260.44;;;12.39;58.06
46392;BME280;32098;49.448;7.904;2023-05-29T01:59:15;98263.50;;;12.31;58.57
46392;BME280;32098;49.448;7.904;2023-05-29T02:01:42;98265.88;;;12.16;58.58
46392;BME280;32098;49.448;7.904;2023-05-29T02:04:09;98267.59;;;11.94;59.67
46392;BME280;32098;49.448;7.904;2023-05-29T02:06:36;98267.06;;;11.69;60.14
46392;BME280;32098;49.448;7.904;2023-05-29T02:09:03;98265.09;;;11.64;60.93
46392;BME280;32098;49.448;7.904;2023-05-29T02:11:29;98257.75;;;11.71;60.46
46392;BME280;32098;49.448;7.904;2023-05-29T02:13:56;98256.31;;;11.81;60.21
46392;BME280;32098;49.448;7.904;2023-05-29T02:16:22;98257.19;;;11.69;61.14
46392;BME280;32098;49.448;7.904;2023-05-29T02:18:49;98249.88;;;11.53;61.08
46392;BME280;32098;49.448;7.904;2023-05-29T02:21:16;98243.00;;;11.46;61.33
46392;BME280;32098;49.448;7.904;2023-05-29T02:23:43;98255.34;;;11.47;61.44
46392;BME280;32098;49.448;7.904;2023-05-29T02:26:12;98233.94;;;11.00;61.90
46392;BME280;32098;49.448;7.904;2023-05-29T02:28:39;98255.91;;;11.26;61.50
46392;BME280;32098;49.448;7.904;2023-05-29T02:31:05;98266.84;;;11.12;62.80
46392;BME280;32098;49.448;7.904;2023-05-29T02:33:32;98255.69;;;11.04;63.00
46392;BME280;32098;49.448;7.904;2023-05-29T02:35:59;98258.59;;;11.02;62.98
46392;BME280;32098;49.448;7.904;2023-05-29T02:38:25;98255.34;;;11.12;62.27
46392;BME280;32098;49.448;7.904;2023-05-29T02:40:52;98255.69;;;11.04;62.31
46392;BME280;32098;49.448;7.904;2023-05-29T02:43:21;98258.22;;;10.87;63.32
46392;BME280;32098;49.448;7.904;2023-05-29T02:45:48;98254.38;;;10.83;63.70
46392;BME280;32098;49.448;7.904;2023-05-29T02:48:14;98264.28;;;10.94;63.79
46392;BME280;32098;49.448;7.904;2023-05-29T02:50:41;98261.03;;;10.92;64.35
46392;BME280;32098;49.448;7.904;2023-05-29T02:53:08;98259.88;;;11.00;63.61
46392;BME280;32098;49.448;7.904;2023-05-29T02:55:34;98255.22;;;11.07;62.96
46392;BME280;32098;49.448;7.904;2023-05-29T02:58:02;98239.97;;;10.73;63.74
46392;BME280;32098;49.448;7.904;2023-05-29T03:00:29;98257.50;;;10.80;63.86
46392;BME280;32098;49.448;7.904;2023-05-29T03:02:57;98261.09;;;10.74;64.17
46392;BME280;32098;49.448;7.904;2023-05-29T03:05:24;98256.34;;;10.88;63.40
46392;BME280;32098;49.448;7.904;2023-05-29T03:07:52;98252.59;;;10.66;64.17
46392;BME280;32098;49.448;7.904;2023-05-29T03:10:18;98256.31;;;10.65;63.04
46392;BME280;32098;49.448;7.904;2023-05-29T03:12:46;98258.16;;;10.53;63.62
46392;BME280;32098;49.448;7.904;2023-05-29T03:15:13;98254.03;;;10.80;62.66
46392;BME280;32098;49.448;7.904;2023-05-29T03:17:40;98259.13;;;10.81;62.23
46392;BME280;32098;49.448;7.904;2023-05-29T03:20:13;98259.75;;;10.95;61.64
46392;BME280;32098;49.448;7.904;2023-05-29T03:22:43;98260.84;;;10.64;63.43
46392;BME280;32098;49.448;7.904;2023-05-29T03:25:10;98221.47;;;10.18;63.63
46392;BME280;32098;49.448;7.904;2023-05-29T03:27:36;98255.53;;;10.34;64.77
46392;BME280;32098;49.448;7.904;2023-05-29T03:30:11;98253.94;;;10.45;63.22
46392;BME280;32098;49.448;7.904;2023-05-29T03:32:38;98257.50;;;10.27;64.48
46392;BME280;32098;49.448;7.904;2023-05-29T03:35:05;98256.28;;;10.23;63.70
46392;BME280;32098;49.448;7.904;2023-05-29T03:37:31;98264.47;;;10.10;65.14
46392;BME280;32098;49.448;7.904;2023-05-29T03:39:58;98264.16;;;10.00;65.42
46392;BME280;32098;49.448;7.904;2023-05-29T03:42:25;98278.94;;;9.66;67.29
46392;BME280;32098;49.448;7.904;2023-05-29T03:44:52;98278.50;;;9.69;67.56
46392;BME280;32098;49.448;7.904;2023-05-29T03:47:21;98169.19;;;8.97;67.88
46392;BME280;32098;49.448;7.904;2023-05-29T03:49:49;98274.88;;;9.82;66.93
46392;BME280;32098;49.448;7.904;2023-05-29T03:52:17;98281.38;;;9.86;67.38
46392;BME280;32098;49.448;7.904;2023-05-29T03:54:43;98280.31;;;10.05;65.59
46392;BME280;32098;49.448;7.904;2023-05-29T03:57:11;98267.44;;;10.02;64.66
46392;BME280;32098;49.448;7.904;2023-05-29T03:59:37;98297.00;;;10.19;65.19
46392;BME280;32098;49.448;7.904;2023-05-29T04:02:04;98289.38;;;10.22;65.32
46392;BME280;32098;49.448;7.904;2023-05-29T04:04:31;98300.69;;;10.36;64.45
46392;BME280;32098;49.448;7.904;2023-05-29T04:06:57;98298.06;;;10.47;64.70
46392;BME280;32098;49.448;7.904;2023-05-29T04:09:24;98288.84;;;10.73;64.14
46392;BME280;32098;49.448;7.904;2023-05-29T04:11:51;98288.41;;;10.88;63.28
46392;BME280;32098;49.448;7.904;2023-05-29T04:14:18;98292.25;;;10.92;62.90
46392;BME280;32098;49.448;7.904;2023-05-29T04:16:46;98301.88;;;10.93;62.91
46392;BME280;32098;49.448;7.904;2023-05-29T04:19:12;98295.75;;;11.04;62.06
46392;BME280;32098;49.448;7.904;2023-05-29T04:21:39;98313.59;;;10.80;64.07
46392;BME280;32098;49.448;7.904;2023-05-29T04:24:06;98304.59;;;11.04;62.84
46392;BME280;32098;49.448;7.904;2023-05-29T04:26:32;98313.06;;;11.13;63.43
46392;BME280;32098;49.448;7.904;2023-05-29T04:28:59;98313.94;;;11.25;63.09
46392;BME280;32098;49.448;7.904;2023-05-29T04:31:26;98291.81;;;11.06;63.46
46392;BME280;32098;49.448;7.904;2023-05-29T04:33:54;98315.00;;;11.59;62.24
46392;BME280;32098;49.448;7.904;2023-05-29T04:36:26;98321.25;;;11.88;61.29
46392;BME280;32098;49.448;7.904;2023-05-29T04:39:05;98331.16;;;12.27;60.34
46392;BME280;32098;49.448;7.904;2023-05-29T04:41:33;98335.59;;;12.61;59.54
46392;BME280;32098;49.448;7.904;2023-05-29T04:44:01;98337.31;;;12.95;57.90
46392;BME280;32098;49.448;7.904;2023-05-29T04:46:38;98335.94;;;13.10;57.41
46392;BME280;32098;49.448;7.904;2023-05-29T04:49:05;98339.91;;;13.24;56.58
46392;BME280;32098;49.448;7.904;2023-05-29T04:51:31;98336.59;;;13.17;56.95
46392;BME280;32098;49.448;7.904;2023-05-29T04:53:58;98346.75;;;13.15;57.10
46392;BME280;32098;49.448;7.904;2023-05-29T04:56:25;98342.28;;;13.20;56.48
46392;BME280;32098;49.448;7.904;2023-05-29T04:58:53;98350.75;;;13.45;56.49
46392;BME280;32098;49.448;7.904;2023-05-29T05:01:20;98352.31;;;13.58;56.20
46392;BME280;32098;49.448;7.904;2023-05-29T05:03:47;98356.75;;;13.69;55.70
46392;BME280;32098;49.448;7.904;2023-05-29T05:06:13;98357.53;;;13.86;55.53
46392;BME280;32098;49.448;7.904;2023-05-29T05:08:43;98350.28;;;14.03;54.76
46392;BME280;32098;49.448;7.904;2023-05-29T05:11:09;98352.81;;;14.37;55.13
46392;BME280;32098;49.448;7.904;2023-05-29T05:13:36;98356.97;;;14.22;54.80
46392;BME280;32098;49.448;7.904;2023-05-29T05:16:03;98355.97;;;14.50;54.57
46392;BME280;32098;49.448;7.904;2023-05-29T05:18:30;98355.78;;;14.78;54.34
46392;BME280;32098;49.448;7.904;2023-05-29T05:21:03;98359.31;;;15.11;53.76
46392;BME280;32098;49.448;7.904;2023-05-29T05:23:32;98356.34;;;15.44;53.08
46392;BME280;32098;49.448;7.904;2023-05-29T05:26:14;98367.88;;;15.66;52.22
46392;BME280;32098;49.448;7.904;2023-05-29T05:28:42;98362.72;;;16.06;51.56
46392;BME280;32098;49.448;7.904;2023-05-29T05:31:10;98358.88;;;16.44;51.29
46392;BME280;32098;49.448;7.904;2023-05-29T05:33:37;98359.53;;;16.71;50.09
46392;BME280;32098;49.448;7.904;2023-05-29T05:36:04;98250.44;;;16.27;49.52
46392;BME280;32098;49.448;7.904;2023-05-29T05:38:34;98352.34;;;17.27;48.28
46392;BME280;32098;49.448;7.904;2023-05-29T05:41:00;98350.44;;;17.63;47.97
46392;BME280;32098;49.448;7.904;2023-05-29T05:43:30;98354.47;;;18.06;46.81
46392;BME280;32098;49.448;7.904;2023-05-29T05:46:06;98370.63;;;18.21;46.27
46392;BME280;32098;49.448;7.904;2023-05-29T05:48:35;98366.09;;;17.81;46.83
46392;BME280;32098;49.448;7.904;2023-05-29T05:51:01;98371.47;;;17.96;47.10
46392;BME280;32098;49.448;7.904;2023-05-29T05:53:28;98370.16;;;17.69;45.42
46392;BME280;32098;49.448;7.904;2023-05-29T05:55:56;98369.38;;;17.58;45.85
46392;BME280;32098;49.448;7.904;2023-05-29T05:58:22;98369.09;;;17.34;45.79
46392;BME280;32098;49.448;7.904;2023-05-29T06:00:49;98372.06;;;17.43;45.45
46392;BME280;32098;49.448;7.904;2023-05-29T06:03:19;98383.59;;;16.26;48.03
46392;BME280;32098;49.448;7.904;2023-05-29T06:05:59;98377.09;;;16.22;48.75
46392;BME280;32098;49.448;7.904;2023-05-29T06:08:25;98387.84;;;16.79;48.55
46392;BME280;32098;49.448;7.904;2023-05-29T06:10:52;98384.97;;;17.16;47.02
46392;BME280;32098;49.448;7.904;2023-05-29T06:13:19;98378.44;;;16.97;46.92
46392;BME280;32098;49.448;7.904;2023-05-29T06:15:55;98378.00;;;17.35;47.34
46392;BME280;32098;49.448;7.904;2023-05-29T06:18:22;98379.59;;;17.21;47.06
46392;BME280;32098;49.448;7.904;2023-05-29T06:20:49;98372.50;;;16.95;46.24
46392;BME280;32098;49.448;7.904;2023-05-29T06:23:16;98385.44;;;16.82;47.53
46392;BME280;32098;49.448;7.904;2023-05-29T06:25:44;98384.78;;;16.50;47.42
46392;BME280;32098;49.448;7.904;2023-05-29T06:28:10;98381.47;;;16.33;47.88
46392;BME280;32098;49.448;7.904;2023-05-29T06:30:38;98390.28;;;16.80;48.00
46392;BME280;32098;49.448;7.904;2023-05-29T06:33:06;98386.25;;;16.78;47.36
46392;BME280;32098;49.448;7.904;2023-05-29T06:35:35;98393.00;;;16.86;47.17
46392;BME280;32098;49.448;7.904;2023-05-29T06:38:03;98389.72;;;16.63;47.21
46392;BME280;32098;49.448;7.904;2023-05-29T06:40:30;98390.25;;;16.70;47.56
46392;BME280;32098;49.448;7.904;2023-05-29T06:42:56;98394.31;;;16.16;47.92
46392;BME280;32098;49.448;7.904;2023-05-29T06:45:39;98394.84;;;16.70;47.96
46392;BME280;32098;49.448;7.904;2023-05-29T06:48:08;98392.88;;;16.45;48.16
46392;BME280;32098;49.448;7.904;2023-05-29T06:50:34;98380.03;;;16.15;47.29
46392;BME280;32098;49.448;7.904;2023-05-29T06:53:14;98389.22;;;15.78;48.76
46392;BME280;32098;49.448;7.904;2023-05-29T06:55:47;98386.22;;;15.42;49.39
46392;BME280;32098;49.448;7.904;2023-05-29T06:58:14;98393.34;;;15.53;50.33
46392;BME280;32098;49.448;7.904;2023-05-29T07:00:41;98392.31;;;16.38;50.04
46392;BME280;32098;49.448;7.904;2023-05-29T07:03:29;98300.22;;;15.58;48.67
46392;BME280;32098;49.448;7.904;2023-05-29T07:05:56;98389.19;;;15.73;49.31
46392;BME280;32098;49.448;7.904;2023-05-29T07:08:23;98401.38;;;15.85;49.22
46392;BME280;32098;49.448;7.904;2023-05-29T07:10:50;98383.53;;;16.16;49.73
46392;BME280;32098;49.448;7.904;2023-05-29T07:13:19;98396.16;;;16.62;48.45
46392;BME280;32098;49.448;7.904;2023-05-29T07:15:48;98403.22;;;16.68;48.64
46392;BME280;32098;49.448;7.904;2023-05-29T07:18:15;98381.56;;;16.53;48.06
46392;BME280;32098;49.448;7.904;2023-05-29T07:20:42;98402.19;;;17.00;48.58
46392;BME280;32098;49.448;7.904;2023-05-29T07:23:12;98400.38;;;17.20;48.16
46392;BME280;32098;49.448;7.904;2023-05-29T07:25:39;98407.91;;;17.08;48.02
46392;BME280;32098;49.448;7.904;2023-05-29T07:28:05;98391.50;;;17.35;47.58
46392;BME280;32098;49.448;7.904;2023-05-29T07:30:48;98396.09;;;17.70;47.01
46392;BME280;32098;49.448;7.904;2023-05-29T07:33:14;98404.19;;;17.44;46.60
46392;BME280;32098;49.448;7.904;2023-05-29T07:35:41;98401.72;;;18.24;45.18
46392;BME280;32098;49.448;7.904;2023-05-29T07:38:08;98399.84;;;18.88;44.60
46392;BME280;32098;49.448;7.904;2023-05-29T07:40:36;98396.53;;;19.40;42.80
46392;BME280;32098;49.448;7.904;2023-05-29T07:43:29;98410.28;;;18.51;44.34
46392;BME280;32098;49.448;7.904;2023-05-29T07:45:59;98411.06;;;18.61;44.38
46392;BME280;32098;49.448;7.904;2023-05-29T07:48:26;98402.31;;;18.74;43.90
46392;BME280;32098;49.448;7.904;2023-05-29T07:50:54;98417.50;;;18.70;44.04
46392;BME280;32098;49.448;7.904;2023-05-29T07:53:23;98412.19;;;19.09;43.99
46392;BME280;32098;49.448;7.904;2023-05-29T07:55:50;98411.69;;;19.02;43.52
46392;BME280;32098;49.448;7.904;2023-05-29T07:58:16;98416.94;;;18.79;43.69
46392;BME280;32098;49.448;7.904;2023-05-29T08:00:44;98362.75;;;18.30;44.20
46392;BME280;32098;49.448;7.904;2023-05-29T08:03:12;98409.72;;;18.54;44.58
46392;BME280;32098;49.448;7.904;2023-05-29T08:05:58;98410.09;;;18.96;44.01
46392;BME280;32098;49.448;7.904;2023-05-29T08:08:26;98407.66;;;20.06;42.50
46392;BME280;32098;49.448;7.904;2023-05-29T08:10:53;98407.53;;;20.69;41.41
46392;BME280;32098;49.448;7.904;2023-05-29T08:13:20;98420.88;;;19.84;42.04
46392;BME280;32098;49.448;7.904;2023-05-29T08:15:47;98415.63;;;19.59;42.09
46392;BME280;32098;49.448;7.904;2023-05-29T08:18:13;98425.28;;;18.87;44.14
46392;BME280;32098;49.448;7.904;2023-05-29T08:20:40;98422.09;;;18.70;44.63
46392;BME280;32098;49.448;7.904;2023-05-29T08:23:06;98423.78;;;19.15;44.20
46392;BME280;32098;49.448;7.904;2023-05-29T08:25:33;98413.22;;;19.18;42.94
46392;BME280;32098;49.448;7.904;2023-05-29T08:27:59;98431.72;;;19.01;44.68
46392;BME280;32098;49.448;7.904;2023-05-29T08:30:26;98417.91;;;19.03;44.40
46392;BME280;32098;49.448;7.904;2023-05-29T08:32:52;98416.78;;;19.48;44.76
46392;BME280;32098;49.448;7.904;2023-05-29T08:35:19;98413.75;;;19.93;43.47
46392;BME280;32098;49.448;7.904;2023-05-29T08:37:46;98406.13;;;19.95;42.99
46392;BME280;32098;49.448;7.904;2023-05-29T08:40:12;98407.97;;;19.71;43.54
46392;BME280;32098;49.448;7.904;2023-05-29T08:42:48;98403.50;;;19.85;42.85
46392;BME280;32098;49.448;7.904;2023-05-29T08:45:18;98404.38;;;20.09;42.81
46392;BME280;32098;49.448;7.904;2023-05-29T08:47:48;98401.16;;;20.78;41.74
46392;BME280;32098;49.448;7.904;2023-05-29T08:50:18;98400.22;;;21.06;41.83
46392;BME280;32098;49.448;7.904;2023-05-29T08:52:45;98394.94;;;20.96;41.58
46392;BME280;32098;49.448;7.904;2023-05-29T08:55:13;98369.69;;;20.77;40.80
46392;BME280;32098;49.448;7.904;2023-05-29T08:57:40;98407.53;;;20.69;41.36
46392;BME280;32098;49.448;7.904;2023-05-29T09:00:08;98379.16;;;20.32;42.76
46392;BME280;32098;49.448;7.904;2023-05-29T09:02:39;98396.88;;;20.25;41.86
46392;BME280;32098;49.448;7.904;2023-05-29T09:05:07;98393.78;;;20.36;40.43
46392;BME280;32098;49.448;7.904;2023-05-29T09:07:34;98399.00;;;20.56;39.65
46392;BME280;32098;49.448;7.904;2023-05-29T09:10:00;98393.16;;;20.44;39.53
46392;BME280;32098;49.448;7.904;2023-05-29T09:12:27;98405.81;;;20.73;39.94
46392;BME280;32098;49.448;7.904;2023-05-29T09:14:53;98406.69;;;20.92;39.61
46392;BME280;32098;49.448;7.904;2023-05-29T09:17:20;98391.00;;;21.26;39.97
46392;BME280;32098;49.448;7.904;2023-05-29T09:19:47;98388.13;;;21.17;39.67
46392;BME280;32098;49.448;7.904;2023-05-29T09:22:14;98408.66;;;20.63;39.17
46392;BME280;32098;49.448;7.904;2023-05-29T09:24:43;98411.94;;;20.65;41.49
46392;BME280;32098;49.448;7.904;2023-05-29T09:27:12;98407.38;;;20.79;40.43
46392;BME280;32098;49.448;7.904;2023-05-29T09:29:40;98395.53;;;20.51;40.31
46392;BME280;32098;49.448;7.904;2023-05-29T09:32:11;98412.16;;;20.44;40.74
46392;BME280;32098;49.448;7.904;2023-05-29T09:34:38;98404.16;;;20.29;40.89
46392;BME280;32098;49.448;7.904;2023-05-29T09:37:07;98413.50;;;20.18;40.54
46392;BME280;32098;49.448;7.904;2023-05-29T09:39:55;98406.47;;;20.17;41.42
46392;BME280;32098;49.448;7.904;2023-05-29T09:42:22;98407.28;;;20.65;40.05
46392;BME280;32098;49.448;7.904;2023-05-29T09:44:52;98410.09;;;20.31;40.38
46392;BME280;32098;49.448;7.904;2023-05-29T09:47:19;98430.91;;;20.41;40.12
46392;BME280;32098;49.448;7.904;2023-05-29T09:49:46;98410.06;;;20.36;40.27
46392;BME280;32098;49.448;7.904;2023-05-29T09:52:14;98418.63;;;20.48;41.03
46392;BME280;32098;49.448;7.904;2023-05-29T09:54:43;98415.59;;;20.26;40.53
46392;BME280;32098;49.448;7.904;2023-05-29T09:57:13;98411.75;;;20.56;40.08
46392;BME280;32098;49.448;7.904;2023-05-29T09:59:42;98409.50;;;20.39;39.71
46392;BME280;32098;49.448;7.904;2023-05-29T10:02:11;98411.44;;;20.34;39.51
46392;BME280;32098;49.448;7.904;2023-05-29T10:04:40;98412.38;;;20.72;39.87
46392;BME280;32098;49.448;7.904;2023-05-29T10:07:14;98411.91;;;21.07;39.46
46392;BME280;32098;49.448;7.904;2023-05-29T10:09:44;98407.69;;;21.19;38.58
46392;BME280;32098;49.448;7.904;2023-05-29T10:12:12;98406.28;;;21.22;37.43
46392;BME280;32098;49.448;7.904;2023-05-29T10:14:40;98401.94;;;21.21;38.88
46392;BME280;32098;49.448;7.904;2023-05-29T10:17:09;98402.41;;;20.86;38.28
46392;BME280;32098;49.448;7.904;2023-05-29T10:19:40;98403.53;;;21.03;38.73
46392;BME280;32098;49.448;7.904;2023-05-29T10:22:09;98389.88;;;21.46;39.01
46392;BME280;32098;49.448;7.904;2023-05-29T10:24:36;98397.66;;;22.17;39.10
46392;BME280;32098;49.448;7.904;2023-05-29T10:27:04;98406.41;;;22.14;36.60
46392;BME280;32098;49.448;7.904;2023-05-29T10:29:39;98405.00;;;22.16;37.38
46392;BME280;32098;49.448;7.904;2023-05-29T10:37:53;98393.31;;;20.95;39.08
46392;BME280;32098;49.448;7.904;2023-05-29T10:40:27;98398.31;;;21.07;38.95
46392;BME280;32098;49.448;7.904;2023-05-29T10:42:54;98399.84;;;20.94;38.96
46392;BME280;32098;49.448;7.904;2023-05-29T10:50:38;98380.19;;;21.02;39.18
46392;BME280;32098;49.448;7.904;2023-05-29T10:53:14;98379.22;;;21.49;38.46
46392;BME280;32098;49.448;7.904;2023-05-29T10:55:41;98393.44;;;21.78;39.16
46392;BME280;32098;49.448;7.904;2023-05-29T10:58:24;98399.81;;;21.69;37.83
46392;BME280;32098;49.448;7.904;2023-05-29T11:00:53;98397.09;;;21.18;38.72
46392;BME280;32098;49.448;7.904;2023-05-29T11:03:22;98393.41;;;21.28;37.99
46392;BME280;32098;49.448;7.904;2023-05-29T11:06:05;98387.25;;;21.73;37.19
46392;BME280;32098;49.448;7.904;2023-05-29T11:11:14;98388.84;;;21.93;38.08
46392;BME280;32098;49.448;7.904;2023-05-29T11:13:51;98385.06;;;22.21;36.39
46392;BME280;32098;49.448;7.904;2023-05-29T11:18:52;98384.09;;;21.66;36.27
46392;BME280;32098;49.448;7.904;2023-05-29T11:21:46;98390.75;;;21.92;36.73
46392;BME280;32098;49.448;7.904;2023-05-29T11:24:26;98384.66;;;21.49;36.36
46392;BME280;32098;49.448;7.904;2023-05-29T11:26:55;98396.28;;;21.55;36.26
46392;BME280;32098;49.448;7.904;2023-05-29T11:29:27;98393.13;;;21.29;36.09
46392;BME280;32098;49.448;7.904;2023-05-29T11:32:05;98375.88;;;21.71;36.51
46392;BME280;32098;49.448;7.904;2023-05-29T11:34:38;98386.66;;;22.35;36.72
46392;BME280;32098;49.448;7.904;2023-05-29T11:37:05;98307.72;;;21.35;35.32
46392;BME280;32098;49.448;7.904;2023-05-29T11:39:36;98394.53;;;21.27;36.26
46392;BME280;32098;49.448;7.904;2023-05-29T11:42:03;98389.28;;;21.30;35.97
46392;BME280;32098;49.448;7.904;2023-05-29T11:44:30;98393.63;;;21.31;37.83
46392;BME280;32098;49.448;7.904;2023-05-29T11:47:04;98379.75;;;21.51;36.78
46392;BME280;32098;49.448;7.904;2023-05-29T11:49:32;98387.31;;;21.87;36.51
46392;BME280;32098;49.448;7.904;2023-05-29T11:52:13;98379.81;;;22.11;35.55
46392;BME280;32098;49.448;7.904;2023-05-29T11:54:43;98393.84;;;21.53;35.21
46392;BME280;32098;49.448;7.904;2023-05-29T11:57:19;98389.63;;;21.93;36.54
46392;BME280;32098;49.448;7.904;2023-05-29T11:59:46;98389.72;;;21.88;36.18
46392;BME280;32098;49.448;7.904;2023-05-29T12:02:13;98379.31;;;22.09;35.20
46392;BME280;32098;49.448;7.904;2023-05-29T12:04:40;98395.31;;;21.97;35.03
46392;BME280;32098;49.448;7.904;2023-05-29T12:07:20;98375.13;;;21.65;37.39
46392;BME280;32098;49.448;7.904;2023-05-29T12:09:46;98376.00;;;21.47;37.08
46392;BME280;32098;49.448;7.904;2023-05-29T12:12:15;98385.66;;;21.21;37.91
46392;BME280;32098;49.448;7.904;2023-05-29T12:14:41;98380.28;;;21.16;37.39
46392;BME280;32098;49.448;7.904;2023-05-29T12:17:07;98380.22;;;21.21;38.16
46392;BME280;32098;49.448;7.904;2023-05-29T12:19:35;98383.72;;;21.40;37.75
46392;BME280;32098;49.448;7.904;2023-05-29T12:22:02;98364.19;;;21.38;38.17
46392;BME280;32098;49.448;7.904;2023-05-29T12:24:28;98378.66;;;21.52;37.56
46392;BME280;32098;49.448;7.904;2023-05-29T12:27:08;98378.31;;;21.72;37.26
46392;BME280;32098;49.448;7.904;2023-05-29T12:29:35;98373.78;;;21.49;37.75
46392;BME280;32098;49.448;7.904;2023-05-29T12:32:01;98373.06;;;21.44;37.58
46392;BME280;32098;49.448;7.904;2023-05-29T12:34:34;98377.91;;;21.28;37.76
46392;BME280;32098;49.448;7.904;2023-05-29T12:37:09;98360.44;;;21.34;38.16
46392;BME280;32098;49.448;7.904;2023-05-29T12:39:40;98369.94;;;21.37;38.08
46392;BME280;32098;49.448;7.904;2023-05-29T12:42:07;98359.00;;;21.23;38.62
46392;BME280;32098;49.448;7.904;2023-05-29T12:44:34;98364.34;;;21.28;38.39
46392;BME280;32098;49.448;7.904;2023-05-29T12:47:01;98363.44;;;21.33;38.22
46392;BME280;32098;49.448;7.904;2023-05-29T12:49:27;98366.81;;;21.06;37.29
46392;BME280;32098;49.448;7.904;2023-05-29T12:52:04;98369.25;;;21.26;38.29
46392;BME280;32098;49.448;7.904;2023-05-29T12:54:31;98332.41;;;21.20;36.46
46392;BME280;32098;49.448;7.904;2023-05-29T12:56:57;98374.13;;;21.80;37.27
46392;BME280;32098;49.448;7.904;2023-05-29T12:59:27;98351.47;;;21.52;37.04
46392;BME280;32098;49.448;7.904;2023-05-29T13:01:53;98357.00;;;21.29;36.86
46392;BME280;32098;49.448;7.904;2023-05-29T13:04:20;98393.22;;;21.24;36.58
46392;BME280;32098;49.448;7.904;2023-05-29T13:06:47;98376.75;;;21.85;37.29
46392;BME280;32098;49.448;7.904;2023-05-29T13:09:13;98361.06;;;22.09;35.88
46392;BME280;32098;49.448;7.904;2023-05-29T13:11:40;98360.44;;;21.99;37.53
46392;BME280;32098;49.448;7.904;2023-05-29T13:14:07;98374.63;;;21.96;36.93
46392;BME280;32098;49.448;7.904;2023-05-29T13:16:33;98364.72;;;21.72;37.32
46392;BME280;32098;49.448;7.904;2023-05-29T13:19:01;98374.88;;;21.67;37.38
46392;BME280;32098;49.448;7.904;2023-05-29T13:21:28;98371.97;;;21.45;36.50
46392;BME280;32098;49.448;7.904;2023-05-29T13:23:55;98368.34;;;21.49;35.98
46392;BME280;32098;49.448;7.904;2023-05-29T13:26:21;98357.06;;;21.74;35.61
46392;BME280;32098;49.448;7.904;2023-05-29T13:28:50;98348.88;;;22.07;36.23
46392;BME280;32098;49.448;7.904;2023-05-29T13:31:18;98364.03;;;21.80;37.08
46392;BME280;32098;49.448;7.904;2023-05-29T13:33:47;98355.44;;;21.41;36.25